Time;durP1;ratioP1;P1;durP2;ratioP2;P2;SDS_P1;SDS_P2;PMS_P1;PMS_P2;Temp;Humidity;BMP_temperature;BMP_pressure;BME280_temperature;BME280_humidity;BME280_pressure;Samples;Min_cycle;Max_cycle;Signal;HPM_P1;HPM_P2
2023/04/02 00:01:52;;;;;;;;;;;;;;;16.64;46.65;99536.59;4973480;28;1434;-56
2023/04/02 00:04:21;;;;;;;;;;;;;;;17.19;47.69;99543.22;4999917;28;1164;-56
2023/04/02 00:06:48;;;;;;;;;;;;;;;16.74;47.15;99557.53;4999132;28;1977;-57
2023/04/02 00:09:13;;;;;;;;;;;;;;;18.27;47.13;99549.78;4999631;28;1250;-57
2023/04/02 00:11:48;;;;;;;;;;;;;;;17.13;48.52;99550.75;4999625;28;1111;-58
2023/04/02 00:14:21;;;;;;;;;;;;;;;16.89;47.45;99559.22;4999725;28;1024;-57
2023/04/02 00:16:46;;;;;;;;;;;;;;;17.42;48.10;99555.88;4998503;28;1563;-57
2023/04/02 00:19:13;;;;;;;;;;;;;;;16.90;47.39;99556.16;4999440;28;1085;-57
2023/04/02 00:21:39;;;;;;;;;;;;;;;16.64;46.54;99565.97;4999061;28;1045;-58
2023/04/02 00:24:15;;;;;;;;;;;;;;;16.49;45.87;99578.03;4998287;28;1128;-57
2023/04/02 00:26:47;;;;;;;;;;;;;;;16.69;46.78;99576.84;4987210;28;1981;-58
2023/04/02 00:29:13;;;;;;;;;;;;;;;16.91;47.34;99562.44;4997879;28;1161;-57
2023/04/02 00:31:43;;;;;;;;;;;;;;;16.56;47.04;99581.22;4999508;28;1132;-57
2023/04/02 00:34:11;;;;;;;;;;;;;;;17.90;46.65;99571.00;4999085;28;1108;-58
2023/04/02 00:36:37;;;;;;;;;;;;;;;16.84;47.85;99579.28;4978423;28;1045;-58
2023/04/02 00:39:03;;;;;;;;;;;;;;;18.33;46.69;99597.22;4995550;28;1057;-58
2023/04/02 00:41:29;;;;;;;;;;;;;;;17.83;47.56;99605.56;4999061;28;1048;-57
2023/04/02 00:43:56;;;;;;;;;;;;;;;17.13;47.66;99604.88;4997912;28;1021;-57
2023/04/02 00:46:28;;;;;;;;;;;;;;;16.96;46.48;99599.97;4978125;28;1910;-57
2023/04/02 00:49:00;;;;;;;;;;;;;;;16.81;46.63;99607.38;4996120;28;1053;-57
2023/04/02 00:51:34;;;;;;;;;;;;;;;17.38;47.85;99604.34;4997823;28;1154;-57
2023/04/02 00:54:00;;;;;;;;;;;;;;;16.76;47.53;99600.03;4999170;28;1119;-56
2023/04/02 00:56:39;;;;;;;;;;;;;;;16.67;46.72;99596.38;4998530;28;1079;-57
2023/04/02 00:59:12;;;;;;;;;;;;;;;16.51;46.37;99601.34;4997666;28;874;-58
2023/04/02 01:01:41;;;;;;;;;;;;;;;16.92;47.20;99597.03;4979502;28;1318;-59
2023/04/02 01:04:15;;;;;;;;;;;;;;;17.44;47.52;99599.53;4998488;28;1025;-58
2023/04/02 01:06:42;;;;;;;;;;;;;;;18.60;46.21;99598.19;5013696;28;1910;-57
2023/04/02 01:09:11;;;;;;;;;;;;;;;17.34;48.02;99602.53;4998727;28;1096;-58
2023/04/02 01:11:46;;;;;;;;;;;;;;;16.88;47.47;99613.28;4996864;28;954;-57
2023/04/02 01:14:11;;;;;;;;;;;;;;;16.74;47.03;99624.22;4998600;28;1108;-57
2023/04/02 01:16:49;;;;;;;;;;;;;;;17.40;47.76;99617.75;4998596;28;1151;-58
2023/04/02 01:19:35;;;;;;;;;;;;;;;16.82;47.59;99616.44;4998182;28;1227;-58
2023/04/02 01:22:20;;;;;;;;;;;;;;;16.64;47.06;99607.94;5001868;28;1185;-63
2023/04/02 01:24:46;;;;;;;;;;;;;;;17.05;47.75;99607.19;4997048;28;1914;-60
2023/04/02 01:27:14;;;;;;;;;;;;;;;17.51;47.54;99599.13;4980623;28;1118;-59
2023/04/02 01:29:45;;;;;;;;;;;;;;;18.60;46.24;99607.25;4998285;28;1115;-58
2023/04/02 01:32:11;;;;;;;;;;;;;;;17.36;48.03;99606.59;4998262;28;1001;-58
2023/04/02 01:34:37;;;;;;;;;;;;;;;16.92;47.60;99602.53;4997700;28;1080;-57
2023/04/02 01:37:11;;;;;;;;;;;;;;;16.80;46.82;99605.72;4998146;28;1132;-58
2023/04/02 01:39:38;;;;;;;;;;;;;;;17.33;47.73;99601.69;4997922;28;1176;-57
2023/04/02 01:42:24;;;;;;;;;;;;;;;17.07;48.07;99610.47;5012839;28;1256;-56
2023/04/02 01:44:54;;;;;;;;;;;;;;;16.71;47.11;99618.53;4956220;28;1969;-57
2023/04/02 01:47:24;;;;;;;;;;;;;;;16.69;46.02;99610.63;4996276;28;1154;-57
2023/04/02 01:49:51;;;;;;;;;;;;;;;17.85;47.15;99609.63;4998195;28;1216;-56
2023/04/02 01:52:18;;;;;;;;;;;;;;;16.99;47.76;99611.16;4996833;28;1093;-57
2023/04/02 01:54:46;;;;;;;;;;;;;;;17.28;47.92;99613.59;4980365;28;1244;-57
2023/04/02 01:57:11;;;;;;;;;;;;;;;17.36;47.71;99606.59;4997642;28;1080;-57
2023/04/02 01:59:37;;;;;;;;;;;;;;;16.96;48.05;99602.72;4995699;28;1226;-57
2023/04/02 02:02:09;;;;;;;;;;;;;;;18.58;46.10;99603.19;4997341;28;1041;-58
2023/04/02 02:04:37;;;;;;;;;;;;;;;17.37;47.39;99602.69;4996438;28;1973;-58
2023/04/02 02:07:09;;;;;;;;;;;;;;;16.96;47.14;99608.22;4980060;28;1949;-57
2023/04/02 02:09:35;;;;;;;;;;;;;;;16.65;46.79;99612.34;5013183;28;1268;-58
2023/04/02 02:12:01;;;;;;;;;;;;;;;16.57;46.26;99613.84;4995963;28;1145;-57
2023/04/02 02:14:28;;;;;;;;;;;;;;;17.47;47.47;99617.34;4997722;28;1025;-58
2023/04/02 02:16:56;;;;;;;;;;;;;;;16.82;47.55;99608.19;4995804;28;1128;-58
2023/04/02 02:19:26;;;;;;;;;;;;;;;17.25;47.47;99603.25;4996237;28;1081;-58
2023/04/02 02:21:53;;;;;;;;;;;;;;;17.10;47.82;99611.78;5012182;28;1557;-59
2023/04/02 02:24:18;;;;;;;;;;;;;;;16.65;47.30;99603.28;4997250;28;902;-59
2023/04/02 02:26:45;;;;;;;;;;;;;;;16.52;46.39;99592.00;4996834;28;1914;-59
2023/04/02 02:29:10;;;;;;;;;;;;;;;17.16;47.38;99596.03;4977223;28;1336;-59
2023/04/02 02:31:36;;;;;;;;;;;;;;;17.38;47.25;99590.59;4995735;28;1030;-58
2023/04/02 02:34:03;;;;;;;;;;;;;;;18.85;45.57;99582.13;5012204;28;1238;-59
2023/04/02 02:36:44;;;;;;;;;;;;;;;17.65;47.68;99588.91;4996336;28;1002;-58
2023/04/02 02:39:30;;;;;;;;;;;;;;;17.06;47.44;99592.34;4980323;28;1394;-59
2023/04/02 02:42:26;;;;;;;;;;;;;;;16.96;46.25;99584.31;4995918;28;1280;-58
2023/04/02 02:44:52;;;;;;;;;;;;;;;16.92;46.71;99597.03;4996000;28;1993;-57
2023/04/02 02:47:22;;;;;;;;;;;;;;;17.40;47.63;99591.13;4996479;28;1220;-57
2023/04/02 02:49:50;;;;;;;;;;;;;;;16.79;47.81;99589.56;4995900;28;1232;-59
2023/04/02 02:52:27;;;;;;;;;;;;;;;16.62;46.68;99598.38;4980089;28;1117;-58
2023/04/02 02:55:05;;;;;;;;;;;;;;;17.51;47.09;99590.88;4995770;28;1110;-58
2023/04/02 02:57:50;;;;;;;;;;;;;;;17.05;47.74;99598.97;4997135;28;1167;-57
2023/04/02 03:00:18;;;;;;;;;;;;;;;16.94;47.64;99578.31;5011302;28;1692;-57
2023/04/02 03:02:44;;;;;;;;;;;;;;;17.62;47.21;99576.59;5028310;28;1230;-56
2023/04/02 03:05:16;;;;;;;;;;;;;;;17.01;47.24;99586.97;4976436;28;1914;-56
2023/04/02 03:07:41;;;;;;;;;;;;;;;17.44;47.87;99581.09;4987429;28;1364;-57
2023/04/02 03:10:18;;;;;;;;;;;;;;;17.31;47.76;99581.16;4976483;28;1119;-57
2023/04/02 03:13:03;;;;;;;;;;;;;;;16.86;47.12;99573.53;4980937;28;1139;-58
2023/04/02 03:15:32;;;;;;;;;;;;;;;17.23;47.42;99590.91;4988778;28;1121;-57
2023/04/02 03:18:06;;;;;;;;;;;;;;;17.00;47.64;99588.09;5011578;28;1196;-62
2023/04/02 03:20:34;;;;;;;;;;;;;;;16.76;46.88;99582.78;4999387;28;1329;-61
2023/04/02 03:23:06;;;;;;;;;;;;;;;17.49;46.94;99587.63;4982832;28;1205;-58
2023/04/02 03:25:35;;;;;;;;;;;;;;;16.82;47.33;99594.47;4999109;28;1996;-57
2023/04/02 03:28:03;;;;;;;;;;;;;;;17.07;47.20;99593.97;5015334;28;1112;-58
2023/04/02 03:30:32;;;;;;;;;;;;;;;17.10;47.28;99603.56;4999130;28;1189;-57
2023/04/02 03:33:16;;;;;;;;;;;;;;;16.75;47.03;99606.66;4999009;28;1488;-63
2023/04/02 03:35:46;;;;;;;;;;;;;;;17.99;46.29;99623.34;4998750;28;1261;-62
2023/04/02 03:38:15;;;;;;;;;;;;;;;17.03;47.27;99625.91;4998655;28;1290;-62
2023/04/02 03:41:02;;;;;;;;;;;;;;;16.72;46.59;99617.44;5011129;28;1182;-57
2023/04/02 03:43:45;;;;;;;;;;;;;;;17.39;47.41;99610.63;5002359;28;1535;-57
2023/04/02 03:46:11;;;;;;;;;;;;;;;16.84;47.08;99614.19;4987054;28;1989;-59
2023/04/02 03:48:40;;;;;;;;;;;;;;;16.63;46.03;99616.50;4998448;28;1212;-59
2023/04/02 03:51:06;;;;;;;;;;;;;;;16.73;46.50;99617.13;4979627;28;1229;-60
2023/04/02 03:53:32;;;;;;;;;;;;;;;17.08;46.87;99609.34;4994294;28;1213;-60
2023/04/02 03:55:58;;;;;;;;;;;;;;;16.63;46.66;99600.03;4982632;28;1225;-61
2023/04/02 03:58:29;;;;;;;;;;;;;;;16.51;46.19;99603.25;4998830;28;1160;-62
2023/04/02 04:01:11;;;;;;;;;;;;;;;17.62;46.14;99600.53;4982173;28;1128;-63
2023/04/02 04:03:38;;;;;;;;;;;;;;;16.71;47.15;99602.88;5030850;28;1164;-64
2023/04/02 04:06:07;;;;;;;;;;;;;;;16.51;46.65;99605.97;5031388;28;2003;-59
2023/04/02 04:08:43;;;;;;;;;;;;;;;16.59;46.63;99606.13;4997062;28;1176;-62
2023/04/02 04:11:12;;;;;;;;;;;;;;;16.92;47.23;99605.28;4997633;28;1074;-63
2023/04/02 04:13:39;;;;;;;;;;;;;;;16.54;46.74;99599.91;4982389;28;1259;-62
2023/04/02 04:16:15;;;;;;;;;;;;;;;17.51;46.19;99599.13;5014426;28;1204;-60
2023/04/02 04:18:50;;;;;;;;;;;;;;;16.70;47.21;99614.16;4982099;28;1137;-60
2023/04/02 04:21:28;;;;;;;;;;;;;;;17.45;46.91;99615.72;4999062;28;1121;-57
2023/04/02 04:23:56;;;;;;;;;;;;;;;17.19;47.07;99617.38;4997312;28;1293;-60
2023/04/02 04:26:24;;;;;;;;;;;;;;;16.60;47.11;99618.72;4998147;28;1910;-60
2023/04/02 04:29:08;;;;;;;;;;;;;;;16.59;46.22;99630.81;4998238;28;1177;-60
2023/04/02 04:31:48;;;;;;;;;;;;;;;17.52;46.79;99637.28;4998034;28;1296;-60
2023/04/02 04:34:21;;;;;;;;;;;;;;;16.77;47.26;99653.00;4998000;28;1355;-60
2023/04/02 04:36:54;;;;;;;;;;;;;;;16.55;46.32;99653.66;4997638;28;1391;-60
2023/04/02 04:39:29;;;;;;;;;;;;;;;17.93;46.08;99658.41;4982364;28;1247;-60
2023/04/02 04:41:56;;;;;;;;;;;;;;;16.93;47.36;99657.13;4997855;28;1233;-60
2023/04/02 04:44:23;;;;;;;;;;;;;;;17.56;47.17;99673.25;5013994;28;1162;-61
2023/04/02 04:46:52;;;;;;;;;;;;;;;17.49;46.90;99664.56;4997477;28;1906;-60
2023/04/02 04:49:26;;;;;;;;;;;;;;;16.94;47.18;99677.16;4997569;28;1379;-60
2023/04/02 04:51:57;;;;;;;;;;;;;;;16.69;46.23;99673.75;4997731;28;1139;-58
2023/04/02 04:54:24;;;;;;;;;;;;;;;17.27;47.45;99677.91;5013871;28;1295;-58
2023/04/02 04:56:50;;;;;;;;;;;;;;;16.73;47.32;99666.53;5030006;28;1927;-58
2023/04/02 04:59:30;;;;;;;;;;;;;;;16.52;46.40;99676.22;5013586;28;1104;-57
2023/04/02 05:02:05;;;;;;;;;;;;;;;17.02;47.20;99676.47;4997136;28;1352;-58
2023/04/02 05:04:35;;;;;;;;;;;;;;;16.66;46.72;99674.34;5013766;28;1434;-57
2023/04/02 05:07:04;;;;;;;;;;;;;;;16.52;46.29;99679.81;5030083;28;1134;-57
2023/04/02 05:09:37;;;;;;;;;;;;;;;18.01;45.21;99681.63;5030214;28;1178;-57
2023/04/02 05:12:03;;;;;;;;;;;;;;;17.27;47.00;99686.16;5000833;28;1128;-58
2023/04/02 05:14:35;;;;;;;;;;;;;;;16.91;47.75;99675.88;4997235;28;1140;-57
2023/04/02 05:17:04;;;;;;;;;;;;;;;16.67;48.42;99683.41;5013402;28;1240;-57
2023/04/02 05:19:32;;;;;;;;;;;;;;;16.53;48.82;99680.59;4981124;28;1245;-57
2023/04/02 05:21:58;;;;;;;;;;;;;;;16.38;48.91;99690.72;5013074;28;2125;-57
2023/04/02 05:24:27;;;;;;;;;;;;;;;16.22;49.56;99694.81;4997842;28;1196;-58
2023/04/02 05:26:55;;;;;;;;;;;;;;;16.10;49.62;99698.00;4997039;28;1910;-58
2023/04/02 05:29:21;;;;;;;;;;;;;;;16.05;50.02;99701.63;5012966;28;1056;-58
2023/04/02 05:32:02;;;;;;;;;;;;;;;15.91;50.16;99700.75;4997791;28;1032;-57
2023/04/02 05:34:32;;;;;;;;;;;;;;;15.84;50.41;99717.53;5028947;28;1346;-58
2023/04/02 05:36:58;;;;;;;;;;;;;;;15.76;50.44;99731.06;4996588;28;1103;-57
2023/04/02 05:39:24;;;;;;;;;;;;;;;15.67;50.70;99728.13;5013155;28;1341;-58
2023/04/02 05:42:02;;;;;;;;;;;;;;;15.63;50.60;99733.41;4997421;28;1135;-57
2023/04/02 05:44:42;;;;;;;;;;;;;;;15.53;50.78;99728.06;4982368;28;1898;-57
2023/04/02 05:47:17;;;;;;;;;;;;;;;15.42;51.11;99740.22;4992980;28;1376;-57
2023/04/02 05:49:43;;;;;;;;;;;;;;;15.36;51.34;99734.81;5018743;28;846;-58
2023/04/02 05:52:14;;;;;;;;;;;;;;;15.30;51.39;99733.22;4994152;28;1267;-58
2023/04/02 05:54:45;;;;;;;;;;;;;;;16.21;49.63;99731.56;4996255;28;1556;-59
2023/04/02 05:57:12;;;;;;;;;;;;;;;17.02;47.33;99731.41;4980364;28;1268;-58
2023/04/02 05:59:46;;;;;;;;;;;;;;;16.16;49.60;99724.25;5013050;28;1629;-58
2023/04/02 06:02:16;;;;;;;;;;;;;;;15.85;50.37;99723.84;4995995;28;1243;-58
2023/04/02 06:05:00;;;;;;;;;;;;;;;15.66;50.98;99732.00;5012224;28;1969;-57
2023/04/02 06:07:32;;;;;;;;;;;;;;;15.51;51.18;99725.56;5029197;28;1118;-57
2023/04/02 06:10:08;;;;;;;;;;;;;;;15.43;51.27;99728.16;4997499;28;1064;-58
2023/04/02 06:13:02;;;;;;;;;;;;;;;15.34;51.72;99720.56;4995744;28;1132;-58
2023/04/02 06:15:29;;;;;;;;;;;;;;;15.95;50.36;99723.72;5018068;28;1289;-58
2023/04/02 06:18:03;;;;;;;;;;;;;;;17.08;47.19;99710.97;4995912;28;1414;-57
2023/04/02 06:20:29;;;;;;;;;;;;;;;16.14;49.78;99715.47;4995901;28;1041;-57
2023/04/02 06:22:58;;;;;;;;;;;;;;;15.79;50.60;99708.53;4997257;28;1084;-59
2023/04/02 06:25:26;;;;;;;;;;;;;;;15.59;51.01;99710.44;5002070;28;1976;-58
2023/04/02 06:27:53;;;;;;;;;;;;;;;15.50;51.43;99709.44;4977508;28;1210;-58
2023/04/02 06:30:20;;;;;;;;;;;;;;;15.38;51.39;99716.16;4979951;28;1224;-60
2023/04/02 06:32:49;;;;;;;;;;;;;;;15.31;51.58;99714.88;4979984;28;1320;-57
2023/04/02 06:35:15;;;;;;;;;;;;;;;15.25;51.68;99714.13;5012135;28;1422;-61
2023/04/02 06:37:44;;;;;;;;;;;;;;;15.52;51.29;99709.97;4979818;28;1241;-60
2023/04/02 06:40:26;;;;;;;;;;;;;;;17.03;47.73;99729.47;4995975;28;1153;-61
2023/04/02 06:42:58;;;;;;;;;;;;;;;16.06;49.80;99730.69;4996726;28;1118;-61
2023/04/02 06:45:42;;;;;;;;;;;;;;;15.73;50.89;99730.53;5018997;28;1920;-61
2023/04/02 06:48:25;;;;;;;;;;;;;;;15.46;51.38;99744.84;5009653;28;1294;-61
2023/04/02 06:51:02;;;;;;;;;;;;;;;16.24;49.88;99736.47;4995481;28;1491;-61
2023/04/02 06:53:30;;;;;;;;;;;;;;;17.05;47.39;99755.50;5011917;28;1150;-58
2023/04/02 06:56:21;;;;;;;;;;;;;;;16.12;49.67;99744.31;5018502;28;1156;-59
2023/04/02 06:58:47;;;;;;;;;;;;;;;15.85;50.64;99756.72;4975431;28;1360;-59
2023/04/02 07:01:14;;;;;;;;;;;;;;;15.65;50.95;99753.09;4983855;28;1198;-58
2023/04/02 07:03:41;;;;;;;;;;;;;;;15.52;51.22;99748.34;5000562;28;1392;-57
2023/04/02 07:06:18;;;;;;;;;;;;;;;15.45;51.35;99747.88;4994645;28;1963;-60
2023/04/02 07:08:45;;;;;;;;;;;;;;;15.42;51.60;99748.44;4995116;28;1295;-60
2023/04/02 07:11:15;;;;;;;;;;;;;;;16.96;48.08;99748.25;4995385;28;1376;-60
2023/04/02 07:13:42;;;;;;;;;;;;;;;16.51;48.77;99746.78;4995082;28;1407;-60
2023/04/02 07:16:11;;;;;;;;;;;;;;;15.99;50.40;99745.84;4994920;28;1379;-60
2023/04/02 07:18:36;;;;;;;;;;;;;;;15.77;51.12;99749.13;5027900;28;1306;-61
2023/04/02 07:21:04;;;;;;;;;;;;;;;15.61;51.37;99746.56;4995167;28;1362;-61
2023/04/02 07:23:30;;;;;;;;;;;;;;;15.50;51.48;99762.31;4995158;28;1244;-60
2023/04/02 07:25:57;;;;;;;;;;;;;;;15.46;51.51;99754.97;4995975;28;1910;-58
2023/04/02 07:28:22;;;;;;;;;;;;;;;15.35;51.78;99760.56;4996306;28;1537;-58
2023/04/02 07:30:48;;;;;;;;;;;;;;;16.45;49.23;99769.09;4984422;28;1260;-60
2023/04/02 07:33:15;;;;;;;;;;;;;;;17.09;47.56;99766.72;4992868;28;1236;-60
2023/04/02 07:35:40;;;;;;;;;;;;;;;16.14;50.07;99770.34;4996248;28;1220;-61
2023/04/02 07:38:06;;;;;;;;;;;;;;;15.84;50.78;99769.63;4996291;28;1147;-63
2023/04/02 07:40:32;;;;;;;;;;;;;;;15.63;51.16;99766.28;5027866;28;1199;-64
2023/04/02 07:42:57;;;;;;;;;;;;;;;15.53;51.51;99777.38;4996261;28;1100;-58
2023/04/02 07:45:23;;;;;;;;;;;;;;;15.39;51.98;99772.56;4996126;28;1977;-59
2023/04/02 07:47:48;;;;;;;;;;;;;;;15.32;51.90;99772.09;4996313;28;1065;-59
2023/04/02 07:50:14;;;;;;;;;;;;;;;15.27;51.88;99790.50;4996216;28;1151;-59
2023/04/02 07:52:41;;;;;;;;;;;;;;;16.28;49.91;99792.38;4995438;28;1072;-55
2023/04/02 07:55:08;;;;;;;;;;;;;;;17.12;47.63;99790.03;4996342;28;1056;-60
2023/04/02 07:57:37;;;;;;;;;;;;;;;16.13;50.06;99785.19;4996180;28;1057;-60
2023/04/02 08:00:03;;;;;;;;;;;;;;;15.79;51.15;99782.56;4999911;28;1156;-63
2023/04/02 08:02:37;;;;;;;;;;;;;;;15.60;51.52;99786.06;4999504;28;899;-60
2023/04/02 08:05:03;;;;;;;;;;;;;;;15.48;51.73;99788.38;4999314;28;1981;-58
2023/04/02 08:07:29;;;;;;;;;;;;;;;15.37;52.01;99785.72;5000347;28;1109;-59
2023/04/02 08:09:54;;;;;;;;;;;;;;;15.30;52.13;99787.19;4999436;28;1234;-59
2023/04/02 08:12:20;;;;;;;;;;;;;;;16.68;48.90;99784.66;4999717;28;1029;-59
2023/04/02 08:14:46;;;;;;;;;;;;;;;16.88;48.11;99783.53;4999257;28;1112;-58
2023/04/02 08:17:11;;;;;;;;;;;;;;;16.10;50.22;99790.41;4999393;28;1052;-60
2023/04/02 08:19:37;;;;;;;;;;;;;;;15.83;51.16;99789.13;4999219;28;1151;-59
2023/04/02 08:22:02;;;;;;;;;;;;;;;15.64;51.40;99799.97;4999844;28;1077;-60
2023/04/02 08:24:28;;;;;;;;;;;;;;;15.54;51.80;99807.22;4999355;28;1430;-60
2023/04/02 08:26:54;;;;;;;;;;;;;;;15.40;51.89;99811.72;4999183;28;1918;-61
2023/04/02 08:29:19;;;;;;;;;;;;;;;16.78;48.79;99816.63;4998945;28;1029;-60
2023/04/02 08:31:45;;;;;;;;;;;;;;;16.53;49.27;99817.81;4999114;28;1402;-59
2023/04/02 08:34:11;;;;;;;;;;;;;;;15.96;50.91;99813.06;4998964;28;1230;-57
2023/04/02 08:36:37;;;;;;;;;;;;;;;15.73;51.23;99815.50;4999245;28;1029;-60
2023/04/02 08:39:03;;;;;;;;;;;;;;;15.54;51.93;99817.34;4998524;28;1021;-60
2023/04/02 08:41:31;;;;;;;;;;;;;;;15.45;51.88;99816.38;4999109;28;1219;-58
2023/04/02 08:43:59;;;;;;;;;;;;;;;15.36;52.28;99810.66;5029193;28;1453;-60
2023/04/02 08:46:26;;;;;;;;;;;;;;;15.33;52.41;99816.72;4998460;28;1911;-59
2023/04/02 08:48:56;;;;;;;;;;;;;;;16.78;48.80;99816.63;5030363;28;1258;-58
2023/04/02 08:51:23;;;;;;;;;;;;;;;16.82;48.62;99823.16;4998449;28;1113;-57
2023/04/02 08:53:49;;;;;;;;;;;;;;;16.04;50.78;99817.09;4995343;28;1271;-58
2023/04/02 08:56:18;;;;;;;;;;;;;;;15.83;51.33;99835.72;4980395;28;1303;-57
2023/04/02 08:58:48;;;;;;;;;;;;;;;15.60;51.60;99827.16;4997349;28;1271;-57
2023/04/02 09:01:33;;;;;;;;;;;;;;;15.49;52.06;99837.41;4998235;28;1306;-56
2023/04/02 09:03:59;;;;;;;;;;;;;;;15.36;52.31;99833.41;4996489;28;1173;-57
2023/04/02 09:06:26;;;;;;;;;;;;;;;15.31;52.40;99843.59;5013385;28;1982;-57
2023/04/02 09:08:52;;;;;;;;;;;;;;;16.48;49.80;99839.84;4978828;28;1097;-58
2023/04/02 09:11:33;;;;;;;;;;;;;;;17.14;48.00;99840.81;4982279;28;1204;-56
2023/04/02 09:13:59;;;;;;;;;;;;;;;16.15;50.51;99837.78;4998394;28;1084;-56
2023/04/02 09:16:44;;;;;;;;;;;;;;;15.82;51.21;99851.34;4998365;28;1211;-57
2023/04/02 09:19:20;;;;;;;;;;;;;;;15.64;51.71;99855.63;5029756;28;1036;-57
2023/04/02 09:21:47;;;;;;;;;;;;;;;15.44;52.03;99858.56;4998212;28;1044;-55
2023/04/02 09:24:13;;;;;;;;;;;;;;;15.38;52.29;99860.53;4998297;28;1195;-54
2023/04/02 09:26:39;;;;;;;;;;;;;;;15.31;52.23;99863.59;4997608;28;1910;-55
2023/04/02 09:29:04;;;;;;;;;;;;;;;16.04;50.81;99859.03;4997722;28;1107;-56
2023/04/02 09:31:42;;;;;;;;;;;;;;;17.20;47.88;99858.00;4997875;28;1143;-55
2023/04/02 09:34:45;;;;;;;;;;;;;;;16.20;50.23;99856.94;4997793;28;1108;-56
2023/04/02 09:37:18;;;;;;;;;;;;;;;15.79;51.19;99862.03;4996007;28;1514;-58
2023/04/02 09:39:44;;;;;;;;;;;;;;;15.60;51.82;99854.56;4995903;28;951;-59
2023/04/02 09:42:28;;;;;;;;;;;;;;;15.49;52.19;99862.06;4996720;28;1529;-59
2023/04/02 09:45:10;;;;;;;;;;;;;;;15.38;52.20;99860.53;4997649;28;1981;-56
2023/04/02 09:47:36;;;;;;;;;;;;;;;15.25;52.68;99870.22;4998305;28;965;-55
2023/04/02 09:50:20;;;;;;;;;;;;;;;16.64;49.60;99859.66;5029094;28;1111;-55
2023/04/02 09:52:46;;;;;;;;;;;;;;;16.98;48.19;99851.19;4986942;28;1061;-55
2023/04/02 09:55:12;;;;;;;;;;;;;;;16.14;50.67;99847.13;5028982;28;1180;-56
2023/04/02 09:57:37;;;;;;;;;;;;;;;15.86;51.36;99859.78;4997022;28;988;-55
2023/04/02 10:00:12;;;;;;;;;;;;;;;15.70;51.77;99854.44;4997367;28;1135;-55
2023/04/02 10:02:38;;;;;;;;;;;;;;;15.56;52.08;99853.50;4997206;28;1212;-59
2023/04/02 10:05:04;;;;;;;;;;;;;;;15.51;52.23;99850.81;4997096;28;1914;-56
2023/04/02 10:07:37;;;;;;;;;;;;;;;15.42;52.12;99852.53;4997542;28;1091;-58
2023/04/02 10:10:15;;;;;;;;;;;;;;;15.32;52.41;99856.19;4997327;28;1148;-59
2023/04/02 10:12:41;;;;;;;;;;;;;;;16.87;49.09;99846.97;4997639;28;1099;-61
2023/04/02 10:15:07;;;;;;;;;;;;;;;16.72;49.22;99857.06;5023305;28;1206;-59
2023/04/02 10:17:32;;;;;;;;;;;;;;;15.99;50.91;99864.59;4988918;28;1097;-60
2023/04/02 10:20:18;;;;;;;;;;;;;;;15.77;51.50;99861.50;4995786;28;1102;-62
2023/04/02 10:22:44;;;;;;;;;;;;;;;15.56;51.98;99873.50;4997042;28;1535;-60
2023/04/02 10:25:16;;;;;;;;;;;;;;;15.50;52.08;99876.56;4996579;28;1969;-56
2023/04/02 10:27:48;;;;;;;;;;;;;;;15.39;52.63;99886.81;5015768;28;1026;-57
2023/04/02 10:30:33;;;;;;;;;;;;;;;16.90;48.98;99882.91;4997452;28;1204;-61
2023/04/02 10:32:59;;;;;;;;;;;;;;;16.50;49.71;99884.28;4996405;28;1210;-60
2023/04/02 10:35:43;;;;;;;;;;;;;;;15.97;51.06;99890.66;4997199;28;1075;-61
2023/04/02 10:38:32;;;;;;;;;;;;;;;15.71;51.97;99890.88;4996888;28;1076;-60
2023/04/02 10:40:58;;;;;;;;;;;;;;;15.59;51.94;99899.50;4963873;28;1190;-58
2023/04/02 10:43:30;;;;;;;;;;;;;;;15.46;52.24;99906.47;5028292;28;1223;-57
2023/04/02 10:45:57;;;;;;;;;;;;;;;15.39;52.65;99909.53;5028010;28;1993;-57
2023/04/02 10:48:29;;;;;;;;;;;;;;;15.28;52.78;99913.47;5028290;28;1234;-58
2023/04/02 10:51:30;;;;;;;;;;;;;;;16.29;50.54;99905.66;5020389;28;1299;-57
2023/04/02 10:53:59;;;;;;;;;;;;;;;16.76;49.18;99920.44;4955852;28;1255;-57
2023/04/02 10:56:25;;;;;;;;;;;;;;;16.03;51.20;99915.00;4988685;28;1364;-59
2023/04/02 10:58:54;;;;;;;;;;;;;;;15.76;51.87;99911.97;4996350;28;1290;-58
2023/04/02 11:01:22;;;;;;;;;;;;;;;15.60;52.28;99909.38;5028041;28;1235;-57
2023/04/02 11:03:58;;;;;;;;;;;;;;;15.46;52.37;99913.84;4996291;28;1235;-57
2023/04/02 11:06:25;;;;;;;;;;;;;;;15.36;52.77;99915.59;4996006;28;1906;-58
2023/04/02 11:08:51;;;;;;;;;;;;;;;16.00;51.57;99912.81;4996752;28;1208;-57
2023/04/02 11:11:25;;;;;;;;;;;;;;;17.05;48.41;99903.81;5027765;28;1231;-58
2023/04/02 11:13:55;;;;;;;;;;;;;;;16.13;50.75;99910.50;5027772;28;1196;-57
2023/04/02 11:16:20;;;;;;;;;;;;;;;15.78;51.90;99901.50;4995603;28;1188;-58
2023/04/02 11:19:04;;;;;;;;;;;;;;;15.63;52.31;99899.75;4992447;28;1192;-58
2023/04/02 11:21:36;;;;;;;;;;;;;;;15.46;52.44;99911.97;4977378;28;1373;-57
2023/04/02 11:24:01;;;;;;;;;;;;;;;15.37;52.58;99913.66;4994175;28;1117;-58
2023/04/02 11:26:28;;;;;;;;;;;;;;;16.22;50.79;99908.75;5027303;28;1979;-59
2023/04/02 11:29:05;;;;;;;;;;;;;;;16.63;49.56;99919.22;4996706;28;1105;-57
2023/04/02 11:31:30;;;;;;;;;;;;;;;15.92;51.40;99921.69;4996499;28;1172;-60
2023/04/02 11:33:56;;;;;;;;;;;;;;;15.68;51.86;99906.00;4998308;28;1168;-60
2023/04/02 11:36:53;;;;;;;;;;;;;;;15.53;52.31;99908.91;5000245;28;1033;-60
2023/04/02 11:39:42;;;;;;;;;;;;;;;15.40;52.64;99904.88;4990713;28;1714;-55
2023/04/02 11:42:17;;;;;;;;;;;;;;;15.32;52.89;99909.06;4999971;28;1392;-59
2023/04/02 11:44:42;;;;;;;;;;;;;;;16.56;50.10;99902.28;5000073;28;1102;-59
2023/04/02 11:47:15;;;;;;;;;;;;;;;16.93;48.67;99900.72;4999945;28;1894;-59
2023/04/02 11:50:02;;;;;;;;;;;;;;;16.09;50.95;99904.78;4999674;28;1136;-56
2023/04/02 11:52:32;;;;;;;;;;;;;;;15.78;52.04;99915.22;4999918;28;1447;-56
2023/04/02 11:55:16;;;;;;;;;;;;;;;15.63;52.04;99908.78;5031322;28;1156;-58
2023/04/02 11:57:46;;;;;;;;;;;;;;;15.50;52.28;99910.28;5000024;28;1140;-56
2023/04/02 12:00:30;;;;;;;;;;;;;;;15.44;52.65;99908.66;5032009;28;1037;-55
2023/04/02 12:03:19;;;;;;;;;;;;;;;16.19;50.98;99898.38;4999878;28;1223;-56
2023/04/02 12:05:47;;;;;;;;;;;;;;;16.99;48.92;99899.53;4969951;28;1911;-57
2023/04/02 12:08:31;;;;;;;;;;;;;;;16.15;51.03;99905.56;4999365;28;1028;-59
2023/04/02 12:10:57;;;;;;;;;;;;;;;15.85;51.62;99907.50;4999608;28;1132;-61
2023/04/02 12:13:38;;;;;;;;;;;;;;;15.67;52.09;99904.38;5031359;28;1172;-59
2023/04/02 12:16:05;;;;;;;;;;;;;;;15.58;52.43;99911.56;4999389;28;1104;-57
2023/04/02 12:18:30;;;;;;;;;;;;;;;15.47;52.62;99915.50;4984978;28;1271;-58
2023/04/02 12:20:56;;;;;;;;;;;;;;;15.44;52.66;99910.59;4979610;28;1306;-60
2023/04/02 12:23:23;;;;;;;;;;;;;;;15.37;52.87;99908.19;4998932;28;1184;-59
2023/04/02 12:25:55;;;;;;;;;;;;;;;15.79;52.14;99919.59;5030323;28;1906;-59
2023/04/02 12:28:21;;;;;;;;;;;;;;;16.95;48.93;99919.66;4998613;28;1204;-59
2023/04/02 12:30:47;;;;;;;;;;;;;;;16.06;51.09;99910.84;4999138;28;1240;-59
2023/04/02 12:33:32;;;;;;;;;;;;;;;15.76;52.01;99911.97;5030522;28;1351;-59
2023/04/02 12:36:01;;;;;;;;;;;;;;;15.57;52.52;99926.38;4998966;28;1231;-59
2023/04/02 12:38:32;;;;;;;;;;;;;;;15.49;52.77;99918.78;5030479;28;1594;-58
2023/04/02 12:40:58;;;;;;;;;;;;;;;15.35;52.96;99924.91;4998525;28;1188;-59
2023/04/02 12:43:25;;;;;;;;;;;;;;;15.70;52.53;99928.44;4999167;28;1307;-61
2023/04/02 12:45:51;;;;;;;;;;;;;;;17.12;48.57;99930.13;4998111;28;1902;-60
2023/04/02 12:48:17;;;;;;;;;;;;;;;16.31;50.84;99922.63;5029852;28;1211;-62
2023/04/02 12:50:42;;;;;;;;;;;;;;;15.90;51.75;99926.66;5030303;28;1254;-61
2023/04/02 12:53:19;;;;;;;;;;;;;;;15.71;52.18;99932.00;4998636;28;1559;-61
2023/04/02 12:55:48;;;;;;;;;;;;;;;15.59;52.36;99940.63;5030606;28;1037;-62
2023/04/02 12:58:31;;;;;;;;;;;;;;;15.47;52.85;99937.41;4996780;28;1040;-59
2023/04/02 13:01:12;;;;;;;;;;;;;;;16.39;50.82;99942.00;4998426;28;1223;-60
2023/04/02 13:03:37;;;;;;;;;;;;;;;17.06;48.61;99935.69;4997917;28;1231;-60
2023/04/02 13:06:03;;;;;;;;;;;;;;;16.22;50.87;99936.19;4998310;28;1906;-60
2023/04/02 13:08:37;;;;;;;;;;;;;;;15.86;52.10;99933.81;5029120;28;1306;-61
2023/04/02 13:11:03;;;;;;;;;;;;;;;15.70;52.31;99931.19;5030089;28;1223;-61
2023/04/02 13:13:32;;;;;;;;;;;;;;;15.56;52.60;99935.72;4998216;28;1275;-59
2023/04/02 13:16:02;;;;;;;;;;;;;;;15.45;52.95;99924.00;4991848;28;1239;-59
2023/04/02 13:18:27;;;;;;;;;;;;;;;15.40;52.97;99927.63;4980543;28;1307;-59